Time;durP1;ratioP1;P1;durP2;ratioP2;P2;SDS_P1;SDS_P2;PMS_P1;PMS_P2;Temp;Humidity;BMP_temperature;BMP_pressure;BME280_temperature;BME280_humidity;BME280_pressure;Samples;Min_cycle;Max_cycle;Signal;HPM_P1;HPM_P2
2022/03/13 00:02:16;;;;;;;10.20;4.85;;;;;;;;;;5010475;28;20491;-73
2022/03/13 00:04:44;;;;;;;12.25;4.07;;;;;;;;;;5012851;28;20046;-71
2022/03/13 00:07:17;;;;;;;7.28;3.90;;;;;;;;;;5013133;28;20053;-73
2022/03/13 00:09:46;;;;;;;9.40;4.30;;;;;;;;;;5010531;28;20088;-74
2022/03/13 00:12:15;;;;;;;12.23;4.45;;;;;;;;;;5012302;28;20746;-72
2022/03/13 00:14:46;;;;;;;10.07;4.57;;;;;;;;;;5013711;28;20046;-72
2022/03/13 00:17:16;;;;;;;10.23;4.63;;;;;;;;;;5016555;28;20047;-74
2022/03/13 00:19:42;;;;;;;7.38;3.55;;;;;;;;;;5012004;28;20111;-71
2022/03/13 00:22:10;;;;;;;8.02;4.10;;;;;;;;;;5018672;28;20038;-73
2022/03/13 00:24:36;;;;;;;8.05;4.05;;;;;;;;;;5018997;28;20053;-72
2022/03/13 00:27:02;;;;;;;7.78;3.80;;;;;;;;;;5018432;28;20050;-73
2022/03/13 00:29:29;;;;;;;9.88;4.10;;;;;;;;;;5016893;28;20057;-75
2022/03/13 00:31:55;;;;;;;7.55;4.13;;;;;;;;;;5023754;28;20925;-71
2022/03/13 00:34:21;;;;;;;11.80;4.13;;;;;;;;;;5018571;28;20120;-71
2022/03/13 00:36:47;;;;;;;8.25;4.70;;;;;;;;;;5013801;28;20060;-71
2022/03/13 00:39:13;;;;;;;9.10;4.63;;;;;;;;;;5015100;28;20060;-71
2022/03/13 00:41:38;;;;;;;10.82;4.75;;;;;;;;;;5017282;28;20435;-73
2022/03/13 00:44:05;;;;;;;11.75;5.07;;;;;;;;;;5014219;28;20061;-72
2022/03/13 00:46:32;;;;;;;14.68;5.55;;;;;;;;;;5016197;28;20626;-71
2022/03/13 00:48:58;;;;;;;12.23;5.30;;;;;;;;;;5014543;28;20049;-72
2022/03/13 00:51:24;;;;;;;17.02;5.35;;;;;;;;;;5015632;28;20137;-69
2022/03/13 00:53:50;;;;;;;14.05;5.35;;;;;;;;;;5017957;28;20167;-71
2022/03/13 00:56:16;;;;;;;10.65;5.45;;;;;;;;;;5017088;28;20499;-70
2022/03/13 00:58:42;;;;;;;12.30;5.03;;;;;;;;;;5015144;28;20054;-72
2022/03/13 01:01:10;;;;;;;10.73;5.40;;;;;;;;;;5015003;28;20050;-72
2022/03/13 01:03:36;;;;;;;10.43;4.88;;;;;;;;;;5013484;28;20084;-73
2022/03/13 01:06:04;;;;;;;9.80;5.10;;;;;;;;;;5019392;28;20081;-72
2022/03/13 01:08:30;;;;;;;10.20;4.88;;;;;;;;;;5016759;28;20143;-72
2022/03/13 01:10:57;;;;;;;10.95;5.00;;;;;;;;;;5016178;28;20062;-73
2022/03/13 01:13:23;;;;;;;13.95;5.05;;;;;;;;;;5014417;28;20081;-74
2022/03/13 01:15:54;;;;;;;11.15;4.95;;;;;;;;;;5017727;28;20045;-71
2022/03/13 01:18:19;;;;;;;11.73;5.15;;;;;;;;;;5015427;28;20052;-73
2022/03/13 01:20:47;;;;;;;9.68;5.15;;;;;;;;;;5014657;28;20042;-73
2022/03/13 01:23:16;;;;;;;11.65;4.88;;;;;;;;;;5012360;28;20049;-72
2022/03/13 01:25:42;;;;;;;13.82;5.63;;;;;;;;;;5014510;28;20294;-71
2022/03/13 01:28:08;;;;;;;12.05;5.45;;;;;;;;;;5016745;28;20084;-71
2022/03/13 01:30:34;;;;;;;10.57;4.97;;;;;;;;;;5017419;28;20107;-71
2022/03/13 01:33:00;;;;;;;10.57;5.10;;;;;;;;;;5015070;28;20053;-74
2022/03/13 01:35:26;;;;;;;10.90;4.97;;;;;;;;;;5014508;28;20068;-71
2022/03/13 01:37:52;;;;;;;10.38;5.45;;;;;;;;;;5015190;28;20065;-74
2022/03/13 01:40:21;;;;;;;12.75;5.60;;;;;;;;;;5012025;28;20045;-70
2022/03/13 01:42:48;;;;;;;12.50;5.03;;;;;;;;;;5012635;28;20089;-73
2022/03/13 01:45:16;;;;;;;19.80;6.50;;;;;;;;;;5012104;28;20566;-69
2022/03/13 01:47:42;;;;;;;10.88;5.35;;;;;;;;;;5016080;28;20503;-72
2022/03/13 01:50:10;;;;;;;10.63;5.40;;;;;;;;;;5014388;28;20600;-72
2022/03/13 01:52:39;;;;;;;9.85;5.55;;;;;;;;;;5012353;28;20252;-71
2022/03/13 01:55:05;;;;;;;12.60;5.15;;;;;;;;;;5015576;28;20045;-70
2022/03/13 01:57:32;;;;;;;11.52;5.43;;;;;;;;;;5016314;28;20053;-71
2022/03/13 02:00:00;;;;;;;13.27;5.57;;;;;;;;;;5016155;28;20057;-74
2022/03/13 02:02:29;;;;;;;16.05;6.30;;;;;;;;;;5022731;28;20058;-74
2022/03/13 02:04:57;;;;;;;11.00;5.30;;;;;;;;;;5014470;28;20133;-72
2022/03/13 02:07:25;;;;;;;9.90;4.15;;;;;;;;;;5014604;28;20045;-70
2022/03/13 02:09:52;;;;;;;10.93;5.40;;;;;;;;;;5018544;28;20057;-71
2022/03/13 02:12:20;;;;;;;16.88;6.65;;;;;;;;;;5017313;28;20050;-72
2022/03/13 02:14:50;;;;;;;17.63;5.28;;;;;;;;;;5014256;28;20129;-72
2022/03/13 02:17:34;;;;;;;15.27;5.78;;;;;;;;;;5021715;28;20491;-72
2022/03/13 02:20:00;;;;;;;9.30;5.00;;;;;;;;;;5014008;28;20054;-72
2022/03/13 02:22:26;;;;;;;10.90;5.30;;;;;;;;;;5016432;28;20041;-70
2022/03/13 02:24:52;;;;;;;11.88;5.95;;;;;;;;;;5011582;28;20064;-72
2022/03/13 02:27:24;;;;;;;14.05;5.28;;;;;;;;;;5014836;28;20050;-70
2022/03/13 02:29:50;;;;;;;9.57;4.95;;;;;;;;;;5015562;28;20575;-70
2022/03/13 02:32:17;;;;;;;9.55;5.40;;;;;;;;;;5013068;28;20049;-70
2022/03/13 02:34:44;;;;;;;11.80;5.65;;;;;;;;;;5018104;28;20069;-71
2022/03/13 02:37:38;;;;;;;15.82;5.57;;;;;;;;;;5017465;28;20050;-72
2022/03/13 02:40:06;;;;;;;12.98;5.43;;;;;;;;;;5007998;28;20085;-72
2022/03/13 02:42:32;;;;;;;12.90;5.93;;;;;;;;;;5014116;28;20049;-70
2022/03/13 02:44:58;;;;;;;15.90;7.40;;;;;;;;;;5016958;28;20738;-69
2022/03/13 02:47:24;;;;;;;13.73;6.00;;;;;;;;;;5019892;28;20054;-71
2022/03/13 02:49:50;;;;;;;11.48;5.78;;;;;;;;;;5016298;28;20076;-70
2022/03/13 02:52:16;;;;;;;12.70;5.80;;;;;;;;;;5013832;28;20802;-71
2022/03/13 02:54:42;;;;;;;15.10;6.07;;;;;;;;;;5016296;28;20041;-71
2022/03/13 02:57:08;;;;;;;10.88;5.25;;;;;;;;;;5015457;28;20549;-72
2022/03/13 02:59:34;;;;;;;15.23;5.93;;;;;;;;;;5011203;28;20069;-71
2022/03/13 03:02:03;;;;;;;12.05;5.70;;;;;;;;;;5016443;28;20053;-71
2022/03/13 03:04:29;;;;;;;13.27;6.10;;;;;;;;;;5015239;28;20049;-72
2022/03/13 03:07:03;;;;;;;14.95;6.28;;;;;;;;;;5010833;28;20068;-74
2022/03/13 03:09:32;;;;;;;15.88;6.32;;;;;;;;;;5020731;28;20105;-72
2022/03/13 03:11:59;;;;;;;13.05;6.05;;;;;;;;;;5021740;28;20370;-73
2022/03/13 03:14:25;;;;;;;17.20;6.57;;;;;;;;;;5015132;28;20080;-70
2022/03/13 03:16:54;;;;;;;12.48;5.65;;;;;;;;;;5017117;28;20054;-71
2022/03/13 03:19:21;;;;;;;12.25;6.32;;;;;;;;;;5015830;28;20050;-70
2022/03/13 03:21:46;;;;;;;15.30;6.70;;;;;;;;;;5012038;28;20093;-70
2022/03/13 03:24:16;;;;;;;13.90;6.72;;;;;;;;;;5013700;28;20041;-71
2022/03/13 03:26:42;;;;;;;13.13;6.68;;;;;;;;;;5012948;28;20060;-72
2022/03/13 03:29:08;;;;;;;12.43;6.63;;;;;;;;;;5015883;28;20498;-71
2022/03/13 03:31:39;;;;;;;16.20;7.18;;;;;;;;;;5016280;28;20055;-70
2022/03/13 03:34:08;;;;;;;13.80;7.18;;;;;;;;;;5010465;28;20038;-70
2022/03/13 03:36:39;;;;;;;14.30;7.22;;;;;;;;;;5013900;28;20075;-71
2022/03/13 03:39:06;;;;;;;12.57;6.28;;;;;;;;;;5012680;28;20057;-70
2022/03/13 03:41:32;;;;;;;14.88;6.15;;;;;;;;;;5013213;28;20521;-70
2022/03/13 03:43:58;;;;;;;17.67;6.35;;;;;;;;;;5013174;28;20053;-71
2022/03/13 03:46:24;;;;;;;15.65;6.90;;;;;;;;;;5011476;28;20497;-72
2022/03/13 03:48:50;;;;;;;15.30;6.82;;;;;;;;;;5011876;28;20049;-72
2022/03/13 03:51:16;;;;;;;12.73;7.70;;;;;;;;;;5014341;28;20045;-69
2022/03/13 03:53:42;;;;;;;14.88;6.80;;;;;;;;;;5013563;28;20133;-70
2022/03/13 03:56:08;;;;;;;10.25;6.10;;;;;;;;;;5016083;28;20131;-74
2022/03/13 03:58:34;;;;;;;12.55;6.30;;;;;;;;;;5010022;28;20056;-72
2022/03/13 04:01:00;;;;;;;16.88;6.95;;;;;;;;;;5015471;28;20045;-70
2022/03/13 04:03:26;;;;;;;15.48;6.88;;;;;;;;;;5015901;28;20081;-70
2022/03/13 04:05:52;;;;;;;13.43;5.95;;;;;;;;;;5011070;28;20057;-72
2022/03/13 04:08:17;;;;;;;15.98;5.80;;;;;;;;;;5012941;28;20041;-73
2022/03/13 04:10:43;;;;;;;17.02;6.47;;;;;;;;;;5010655;28;20034;-71
2022/03/13 04:13:09;;;;;;;12.32;6.50;;;;;;;;;;5013582;28;20568;-72
2022/03/13 04:15:35;;;;;;;17.00;6.35;;;;;;;;;;5008410;28;20068;-72
2022/03/13 04:18:01;;;;;;;11.50;5.40;;;;;;;;;;5013141;28;20065;-72
2022/03/13 04:20:27;;;;;;;9.20;5.45;;;;;;;;;;5006981;28;20085;-72
2022/03/13 04:22:53;;;;;;;11.77;5.78;;;;;;;;;;5009054;28;20776;-71
2022/03/13 04:25:19;;;;;;;11.15;6.18;;;;;;;;;;5011212;28;20071;-73
2022/03/13 04:27:45;;;;;;;14.25;6.45;;;;;;;;;;5008950;28;20046;-72
2022/03/13 04:30:11;;;;;;;16.98;6.68;;;;;;;;;;5010977;28;20104;-72
2022/03/13 04:32:37;;;;;;;12.48;5.13;;;;;;;;;;5010894;28;20041;-70
2022/03/13 04:35:04;;;;;;;13.68;5.65;;;;;;;;;;5012349;28;20133;-72
2022/03/13 04:37:30;;;;;;;12.27;5.45;;;;;;;;;;5015324;28;20058;-72
2022/03/13 04:39:55;;;;;;;9.60;5.13;;;;;;;;;;5014105;28;20354;-75
2022/03/13 04:42:21;;;;;;;9.82;5.15;;;;;;;;;;5012995;28;20050;-69
2022/03/13 04:44:47;;;;;;;9.07;4.78;;;;;;;;;;5017845;28;20524;-72
2022/03/13 04:47:13;;;;;;;10.98;4.75;;;;;;;;;;5014641;28;20057;-70
2022/03/13 04:49:39;;;;;;;9.55;4.78;;;;;;;;;;5007027;28;20046;-73
2022/03/13 04:52:05;;;;;;;10.25;5.10;;;;;;;;;;5007907;28;20049;-71
2022/03/13 04:54:31;;;;;;;9.88;4.68;;;;;;;;;;5011873;28;20123;-70
2022/03/13 04:56:58;;;;;;;19.27;5.47;;;;;;;;;;5016462;28;20060;-69
2022/03/13 04:59:24;;;;;;;11.65;4.93;;;;;;;;;;5008028;28;20046;-70
2022/03/13 05:01:51;;;;;;;7.45;4.30;;;;;;;;;;5011538;28;20132;-69
2022/03/13 05:04:17;;;;;;;8.32;4.35;;;;;;;;;;5009272;28;20054;-71
2022/03/13 05:06:45;;;;;;;8.95;4.40;;;;;;;;;;5012074;28;20038;-72
2022/03/13 05:09:11;;;;;;;8.38;4.22;;;;;;;;;;5012111;28;20601;-74
2022/03/13 05:11:39;;;;;;;11.80;4.60;;;;;;;;;;5018363;28;20065;-73
2022/03/13 05:14:04;;;;;;;9.85;4.28;;;;;;;;;;5012129;28;20137;-71
2022/03/13 05:16:31;;;;;;;7.28;3.72;;;;;;;;;;5009393;28;20183;-71
2022/03/13 05:18:57;;;;;;;9.35;3.90;;;;;;;;;;5010622;28;20064;-70
2022/03/13 05:21:23;;;;;;;8.02;3.75;;;;;;;;;;5014713;28;20049;-70
2022/03/13 05:23:48;;;;;;;6.70;3.38;;;;;;;;;;5016087;28;20045;-72
2022/03/13 05:26:14;;;;;;;8.00;3.40;;;;;;;;;;5013517;28;20046;-71
2022/03/13 05:28:40;;;;;;;8.45;3.40;;;;;;;;;;5012243;28;20045;-70
2022/03/13 05:31:06;;;;;;;8.40;3.38;;;;;;;;;;5011086;28;20107;-70
2022/03/13 05:33:32;;;;;;;6.75;3.10;;;;;;;;;;5012915;28;20053;-71
2022/03/13 05:35:59;;;;;;;12.27;3.47;;;;;;;;;;5021432;28;20046;-72
2022/03/13 05:38:25;;;;;;;9.70;3.35;;;;;;;;;;5020367;28;20049;-74
2022/03/13 05:40:51;;;;;;;7.72;3.22;;;;;;;;;;5014567;28;20059;-70
2022/03/13 05:43:21;;;;;;;6.25;2.90;;;;;;;;;;5018437;28;20041;-70
2022/03/13 05:45:46;;;;;;;5.55;3.10;;;;;;;;;;5014116;28;20046;-70
2022/03/13 05:48:17;;;;;;;7.10;3.30;;;;;;;;;;5013773;28;20092;-72
2022/03/13 05:50:42;;;;;;;5.53;3.10;;;;;;;;;;5013837;28;20080;-71
2022/03/13 05:53:08;;;;;;;7.70;3.28;;;;;;;;;;5020644;28;20084;-72
2022/03/13 05:55:34;;;;;;;8.70;2.72;;;;;;;;;;5014564;28;20568;-73
2022/03/13 05:58:01;;;;;;;9.65;3.20;;;;;;;;;;5017157;28;20057;-70
2022/03/13 06:00:31;;;;;;;5.95;3.20;;;;;;;;;;5017632;28;20605;-70
2022/03/13 06:02:57;;;;;;;6.60;2.90;;;;;;;;;;5015434;28;20053;-70
2022/03/13 06:05:23;;;;;;;10.30;3.20;;;;;;;;;;5016138;28;20110;-71
2022/03/13 06:07:50;;;;;;;8.25;2.80;;;;;;;;;;5007589;28;20605;-74
2022/03/13 06:10:16;;;;;;;6.68;3.00;;;;;;;;;;5010493;28;20103;-73
2022/03/13 06:12:42;;;;;;;6.10;3.10;;;;;;;;;;5012654;28;20076;-74
2022/03/13 06:15:11;;;;;;;10.75;3.65;;;;;;;;;;5014317;28;20144;-74
2022/03/13 06:17:42;;;;;;;12.73;3.22;;;;;;;;;;5011654;28;20050;-73
2022/03/13 06:20:10;;;;;;;7.45;3.10;;;;;;;;;;5013183;28;20052;-71
2022/03/13 06:22:40;;;;;;;8.48;3.78;;;;;;;;;;5018275;28;20045;-70
2022/03/13 06:25:08;;;;;;;10.48;3.63;;;;;;;;;;5008507;28;20057;-73
2022/03/13 06:27:35;;;;;;;8.23;3.38;;;;;;;;;;5012536;28;20120;-71
2022/03/13 06:30:10;;;;;;;11.18;3.70;;;;;;;;;;5012742;28;20447;-71
2022/03/13 06:32:36;;;;;;;7.55;3.35;;;;;;;;;;5015012;28;20057;-74
2022/03/13 06:35:03;;;;;;;6.28;3.13;;;;;;;;;;5017904;28;20099;-73
2022/03/13 06:37:29;;;;;;;5.97;3.40;;;;;;;;;;5016408;28;20130;-69
2022/03/13 06:39:55;;;;;;;11.60;4.05;;;;;;;;;;5015465;28;20187;-70
2022/03/13 06:42:21;;;;;;;7.93;3.63;;;;;;;;;;5017328;28;20096;-70
2022/03/13 06:44:47;;;;;;;6.30;3.90;;;;;;;;;;5013895;28;20066;-72
2022/03/13 06:47:13;;;;;;;9.75;3.42;;;;;;;;;;5014570;28;20049;-72
2022/03/13 06:49:39;;;;;;;8.90;3.47;;;;;;;;;;5008687;28;20050;-71
2022/03/13 06:52:06;;;;;;;9.23;3.13;;;;;;;;;;5015009;28;20110;-73
2022/03/13 06:54:32;;;;;;;6.88;2.80;;;;;;;;;;5016246;28;20077;-71
2022/03/13 06:56:58;;;;;;;12.80;3.17;;;;;;;;;;5014962;28;20132;-72
2022/03/13 06:59:23;;;;;;;7.65;3.20;;;;;;;;;;5011167;28;20146;-71
2022/03/13 07:01:49;;;;;;;7.80;2.78;;;;;;;;;;5011917;28;20052;-72
2022/03/13 07:04:15;;;;;;;8.43;2.75;;;;;;;;;;5013997;28;20055;-72
2022/03/13 07:06:41;;;;;;;10.23;3.08;;;;;;;;;;5011779;28;20042;-72
2022/03/13 07:09:07;;;;;;;9.32;2.92;;;;;;;;;;5014405;28;20123;-71
2022/03/13 07:11:34;;;;;;;7.22;2.95;;;;;;;;;;5013711;28;20057;-71
2022/03/13 07:14:07;;;;;;;6.85;3.20;;;;;;;;;;5014455;28;20095;-69
2022/03/13 07:16:33;;;;;;;6.00;2.30;;;;;;;;;;5012286;28;20775;-73
2022/03/13 07:18:59;;;;;;;6.90;2.30;;;;;;;;;;5013869;28;20587;-70
2022/03/13 07:21:24;;;;;;;4.50;2.33;;;;;;;;;;5014766;28;20056;-70
2022/03/13 07:23:50;;;;;;;4.57;2.10;;;;;;;;;;5018142;28;20053;-73
2022/03/13 07:26:16;;;;;;;6.05;2.08;;;;;;;;;;5012590;28;20073;-72
2022/03/13 07:28:42;;;;;;;6.63;2.08;;;;;;;;;;5014349;28;20357;-71
2022/03/13 07:31:07;;;;;;;3.55;1.95;;;;;;;;;;5017973;28;20053;-71
2022/03/13 07:33:33;;;;;;;6.55;2.33;;;;;;;;;;5012352;28;20073;-72
2022/03/13 07:35:59;;;;;;;4.82;2.45;;;;;;;;;;5012777;28;20057;-71
2022/03/13 07:38:26;;;;;;;4.43;2.13;;;;;;;;;;5011784;28;20057;-71
2022/03/13 07:40:52;;;;;;;7.55;2.38;;;;;;;;;;5013248;28;20053;-70
2022/03/13 07:43:18;;;;;;;5.10;2.20;;;;;;;;;;5015652;28;20071;-72
2022/03/13 07:45:44;;;;;;;4.70;2.22;;;;;;;;;;5010671;28;20541;-74
2022/03/13 07:48:10;;;;;;;7.88;2.40;;;;;;;;;;5014418;28;20042;-70
2022/03/13 07:50:35;;;;;;;5.57;2.03;;;;;;;;;;5010820;28;20489;-72
2022/03/13 07:53:01;;;;;;;7.43;2.10;;;;;;;;;;5011565;28;20068;-72
2022/03/13 07:55:28;;;;;;;4.88;1.98;;;;;;;;;;5010174;28;20050;-71
2022/03/13 07:57:53;;;;;;;7.53;2.53;;;;;;;;;;5016665;28;20104;-70
2022/03/13 08:00:22;;;;;;;6.60;2.25;;;;;;;;;;5012032;28;20083;-71
2022/03/13 08:02:49;;;;;;;7.57;2.50;;;;;;;;;;5014329;28;20061;-71
2022/03/13 08:05:18;;;;;;;6.65;2.92;;;;;;;;;;5014414;28;20499;-72
2022/03/13 08:07:45;;;;;;;7.65;2.55;;;;;;;;;;5015769;28;20114;-71
2022/03/13 08:10:11;;;;;;;7.82;2.90;;;;;;;;;;5011126;28;20045;-72
2022/03/13 08:12:38;;;;;;;6.00;2.90;;;;;;;;;;5014073;28;20049;-69
2022/03/13 08:15:08;;;;;;;7.22;3.10;;;;;;;;;;5015046;28;20061;-71
2022/03/13 08:17:35;;;;;;;6.22;3.22;;;;;;;;;;5013382;28;20058;-73
2022/03/13 08:20:05;;;;;;;7.05;3.30;;;;;;;;;;5013779;28;20503;-72
2022/03/13 08:22:32;;;;;;;7.32;3.35;;;;;;;;;;5011449;28;20110;-73
2022/03/13 08:24:58;;;;;;;6.25;3.00;;;;;;;;;;5014882;28;20060;-73
2022/03/13 08:27:24;;;;;;;11.55;2.67;;;;;;;;;;5019891;28;20045;-72
2022/03/13 08:29:50;;;;;;;9.05;3.03;;;;;;;;;;5017236;28;20396;-71
2022/03/13 08:32:16;;;;;;;7.35;2.67;;;;;;;;;;5012029;28;20428;-70
2022/03/13 08:34:44;;;;;;;14.20;2.97;;;;;;;;;;5012503;28;20037;-72
2022/03/13 08:37:11;;;;;;;7.40;2.33;;;;;;;;;;5012600;28;20049;-73
2022/03/13 08:39:37;;;;;;;6.07;2.28;;;;;;;;;;5011283;28;20521;-73
2022/03/13 08:42:04;;;;;;;7.18;2.85;;;;;;;;;;5014170;28;20114;-71
2022/03/13 08:44:31;;;;;;;9.07;2.85;;;;;;;;;;5016118;28;20061;-70
2022/03/13 08:46:57;;;;;;;8.18;2.47;;;;;;;;;;5014603;28;20054;-74
2022/03/13 08:49:23;;;;;;;5.90;2.40;;;;;;;;;;5014724;28;20073;-72
2022/03/13 08:51:48;;;;;;;6.70;2.53;;;;;;;;;;5015925;28;20545;-72
2022/03/13 08:54:16;;;;;;;8.65;2.40;;;;;;;;;;5016117;28;20058;-71
2022/03/13 08:56:42;;;;;;;8.43;2.83;;;;;;;;;;5018757;28;20137;-74
2022/03/13 08:59:09;;;;;;;5.13;2.40;;;;;;;;;;5010460;28;20510;-70
2022/03/13 09:01:35;;;;;;;7.32;2.50;;;;;;;;;;5011047;28;20073;-73
2022/03/13 09:04:01;;;;;;;6.43;2.50;;;;;;;;;;5012130;28;20045;-73
2022/03/13 09:06:27;;;;;;;5.60;2.20;;;;;;;;;;5010433;28;20049;-74
2022/03/13 09:08:53;;;;;;;4.95;2.22;;;;;;;;;;5010936;28;20053;-71
2022/03/13 09:11:19;;;;;;;8.43;2.35;;;;;;;;;;5015181;28;20045;-75
2022/03/13 09:13:45;;;;;;;5.05;2.30;;;;;;;;;;5013396;28;20139;-75
2022/03/13 09:16:11;;;;;;;4.65;2.13;;;;;;;;;;5015697;28;20050;-73
2022/03/13 09:18:37;;;;;;;4.97;2.55;;;;;;;;;;5012602;28;20594;-72
2022/03/13 09:21:03;;;;;;;6.65;2.80;;;;;;;;;;5014187;28;20394;-70
2022/03/13 09:23:29;;;;;;;19.83;8.38;;;;;;;;;;5015033;28;20052;-70
2022/03/13 09:25:55;;;;;;;6.75;3.70;;;;;;;;;;5014714;28;20056;-71
2022/03/13 09:28:22;;;;;;;8.68;3.70;;;;;;;;;;5016727;28;20057;-75
2022/03/13 09:30:48;;;;;;;4.22;2.35;;;;;;;;;;5014752;28;20122;-69
2022/03/13 09:33:14;;;;;;;5.68;2.25;;;;;;;;;;5015272;28;20499;-77
2022/03/13 09:35:41;;;;;;;4.88;2.85;;;;;;;;;;5014305;28;20065;-74
2022/03/13 09:38:07;;;;;;;6.72;2.63;;;;;;;;;;5015948;28;20081;-71
2022/03/13 09:40:33;;;;;;;5.78;2.78;;;;;;;;;;5019161;28;20050;-75
2022/03/13 09:43:01;;;;;;;6.30;1.80;;;;;;;;;;5016058;28;20061;-69
2022/03/13 09:45:27;;;;;;;3.28;1.63;;;;;;;;;;5016982;28;20064;-67
2022/03/13 09:47:54;;;;;;;3.60;1.50;;;;;;;;;;5018769;28;20049;-73
2022/03/13 09:50:20;;;;;;;2.83;1.10;;;;;;;;;;5014136;28;20045;-65
2022/03/13 09:52:46;;;;;;;2.85;1.00;;;;;;;;;;5019808;28;20038;-68
2022/03/13 09:55:14;;;;;;;3.35;1.20;;;;;;;;;;5021360;28;20116;-71
2022/03/13 09:57:42;;;;;;;1.92;1.00;;;;;;;;;;5016294;28;20507;-71
2022/03/13 10:00:14;;;;;;;3.75;1.23;;;;;;;;;;5012305;28;20092;-73
2022/03/13 10:02:40;;;;;;;1.90;0.95;;;;;;;;;;5018270;28;20499;-69
2022/03/13 10:05:19;;;;;;;2.70;1.15;;;;;;;;;;5016877;28;20365;-72
2022/03/13 10:08:01;;;;;;;4.93;1.17;;;;;;;;;;5017617;28;20049;-70
2022/03/13 10:10:40;;;;;;;3.08;1.10;;;;;;;;;;5012909;28;20056;-71
2022/03/13 10:13:06;;;;;;;1.63;0.80;;;;;;;;;;5016629;28;20049;-69
2022/03/13 10:15:46;;;;;;;3.17;1.35;;;;;;;;;;5015063;28;20259;-73
2022/03/13 10:18:15;;;;;;;2.72;1.13;;;;;;;;;;5014975;28;20051;-74
2022/03/13 10:20:41;;;;;;;3.28;1.50;;;;;;;;;;5007487;28;20057;-74
2022/03/13 10:23:26;;;;;;;3.65;1.23;;;;;;;;;;5014099;28;20449;-72
2022/03/13 10:25:53;;;;;;;2.47;1.10;;;;;;;;;;5013562;28;20054;-72
2022/03/13 10:28:31;;;;;;;1.98;0.95;;;;;;;;;;5014151;28;20478;-71
2022/03/13 10:31:00;;;;;;;4.50;1.40;;;;;;;;;;5019153;28;20057;-71
2022/03/13 10:33:28;;;;;;;5.35;1.80;;;;;;;;;;5012575;28;20196;-72
2022/03/13 10:36:16;;;;;;;5.38;1.83;;;;;;;;;;5013934;28;20127;-71
2022/03/13 10:38:44;;;;;;;5.40;2.42;;;;;;;;;;5016521;28;20072;-72
2022/03/13 10:41:12;;;;;;;3.97;1.90;;;;;;;;;;5018189;28;20124;-73
2022/03/13 10:43:57;;;;;;;6.78;1.40;;;;;;;;;;5019100;28;20060;-70
2022/03/13 10:46:28;;;;;;;4.53;1.50;;;;;;;;;;5017892;28;20057;-72
2022/03/13 10:48:56;;;;;;;2.03;1.33;;;;;;;;;;5013617;28;20806;-72
2022/03/13 10:51:35;;;;;;;6.13;1.50;;;;;;;;;;5018041;28;20494;-70
2022/03/13 10:54:02;;;;;;;4.82;1.40;;;;;;;;;;5023203;28;20058;-76
2022/03/13 10:56:28;;;;;;;2.60;1.48;;;;;;;;;;5019928;28;20053;-71
2022/03/13 10:58:54;;;;;;;3.45;1.33;;;;;;;;;;5019781;28;20119;-75
2022/03/13 11:01:25;;;;;;;2.88;1.63;;;;;;;;;;5018010;28;20061;-74
2022/03/13 11:03:54;;;;;;;5.18;2.13;;;;;;;;;;5017595;28;20492;-71
2022/03/13 11:06:22;;;;;;;3.33;1.50;;;;;;;;;;5011862;28;20040;-76
2022/03/13 11:08:53;;;;;;;2.75;1.38;;;;;;;;;;5009785;28;20158;-70
2022/03/13 11:11:20;;;;;;;1.77;1.00;;;;;;;;;;5013231;28;20570;-72
2022/03/13 11:13:52;;;;;;;2.97;1.45;;;;;;;;;;5013557;28;20061;-74
2022/03/13 11:16:27;;;;;;;5.88;1.33;;;;;;;;;;5013447;28;20100;-69
2022/03/13 11:19:02;;;;;;;3.55;1.50;;;;;;;;;;5013446;28;20115;-72
2022/03/13 11:21:28;;;;;;;2.88;1.50;;;;;;;;;;5015271;28;20054;-69
2022/03/13 11:23:55;;;;;;;3.38;1.05;;;;;;;;;;5017816;28;20057;-70
2022/03/13 11:26:24;;;;;;;3.03;1.50;;;;;;;;;;5017225;28;20499;-70
2022/03/13 11:28:51;;;;;;;2.97;1.73;;;;;;;;;;5018016;28;20779;-70
2022/03/13 11:31:37;;;;;;;3.42;1.50;;;;;;;;;;5014712;28;20096;-74
2022/03/13 11:34:22;;;;;;;4.90;1.40;;;;;;;;;;5010975;28;20064;-73
2022/03/13 11:36:51;;;;;;;2.03;1.20;;;;;;;;;;5010168;28;20056;-74
2022/03/13 11:39:24;;;;;;;1.38;0.93;;;;;;;;;;5004324;28;20065;-73
2022/03/13 11:41:50;;;;;;;3.50;1.20;;;;;;;;;;5008445;28;20056;-71
2022/03/13 11:44:18;;;;;;;1.92;0.95;;;;;;;;;;5013277;28;20046;-74
2022/03/13 11:46:46;;;;;;;3.20;1.10;;;;;;;;;;5012478;28;20045;-74
2022/03/13 11:49:33;;;;;;;1.77;1.23;;;;;;;;;;5011667;28;20100;-74
2022/03/13 11:52:17;;;;;;;2.17;1.17;;;;;;;;;;5009668;28;20414;-74
2022/03/13 11:55:03;;;;;;;2.78;1.55;;;;;;;;;;5009956;28;20042;-74
2022/03/13 11:57:44;;;;;;;3.53;1.98;;;;;;;;;;5012468;28;20133;-72
2022/03/13 12:00:10;;;;;;;1.52;1.08;;;;;;;;;;5013990;28;20407;-74
2022/03/13 12:02:42;;;;;;;1.85;1.20;;;;;;;;;;5011007;28;20094;-76
2022/03/13 12:05:26;;;;;;;2.40;1.15;;;;;;;;;;5013289;28;20045;-74
2022/03/13 12:07:57;;;;;;;3.95;1.50;;;;;;;;;;5015796;28;20057;-72
2022/03/13 12:10:41;;;;;;;2.50;1.40;;;;;;;;;;5014017;28;20069;-72
2022/03/13 12:13:15;;;;;;;4.75;1.98;;;;;;;;;;5013569;28;20514;-72
2022/03/13 12:15:42;;;;;;;2.63;1.50;;;;;;;;;;5011005;28;20486;-72
2022/03/13 12:18:17;;;;;;;3.13;1.85;;;;;;;;;;5014019;28;20056;-75
2022/03/13 12:20:44;;;;;;;1.52;1.13;;;;;;;;;;5012053;28;20045;-75
2022/03/13 12:23:24;;;;;;;2.10;1.30;;;;;;;;;;5016301;28;20483;-71
2022/03/13 12:25:54;;;;;;;2.08;1.30;;;;;;;;;;5010592;28;20099;-75
2022/03/13 12:28:33;;;;;;;1.75;1.10;;;;;;;;;;5016913;28;20050;-72
2022/03/13 12:31:02;;;;;;;2.10;1.35;;;;;;;;;;5013451;28;20054;-74
2022/03/13 12:33:31;;;;;;;2.00;1.25;;;;;;;;;;5015014;28;20049;-74
2022/03/13 12:35:59;;;;;;;2.45;1.40;;;;;;;;;;5012252;28;20136;-71
2022/03/13 12:38:33;;;;;;;3.30;2.25;;;;;;;;;;5010534;28;20046;-73
2022/03/13 12:41:03;;;;;;;4.47;2.30;;;;;;;;;;5008606;28;20419;-75
2022/03/13 12:43:50;;;;;;;4.43;2.13;;;;;;;;;;5011915;28;20049;-74
2022/03/13 12:46:18;;;;;;;8.52;2.17;;;;;;;;;;5017819;28;20240;-74
2022/03/13 12:48:59;;;;;;;4.30;2.22;;;;;;;;;;5020158;28;20556;-73
2022/03/13 12:51:35;;;;;;;6.13;2.15;;;;;;;;;;5011073;28;20081;-72
2022/03/13 12:54:04;;;;;;;5.25;1.90;;;;;;;;;;5015656;28;20352;-75
2022/03/13 12:56:31;;;;;;;5.50;2.50;;;;;;;;;;5016216;28;20053;-74
2022/03/13 12:58:57;;;;;;;8.18;3.08;;;;;;;;;;5014497;28;20062;-74
2022/03/13 13:01:23;;;;;;;8.30;3.60;;;;;;;;;;5017741;28;20136;-72
2022/03/13 13:03:51;;;;;;;11.85;6.05;;;;;;;;;;5016710;28;20060;-71
2022/03/13 13:06:38;;;;;;;10.68;3.92;;;;;;;;;;5014301;28;20037;-72
2022/03/13 13:09:04;;;;;;;9.98;3.95;;;;;;;;;;5016847;28;20102;-74
2022/03/13 13:11:37;;;;;;;11.40;3.47;;;;;;;;;;5017392;28;20041;-75
2022/03/13 13:14:03;;;;;;;11.52;2.90;;;;;;;;;;5016427;28;20632;-73
2022/03/13 13:16:32;;;;;;;8.75;3.38;;;;;;;;;;5019410;28;20597;-75
2022/03/13 13:18:59;;;;;;;7.00;2.97;;;;;;;;;;5015694;28;20145;-74
2022/03/13 13:21:40;;;;;;;12.70;4.07;;;;;;;;;;5012217;28;20060;-72
2022/03/13 13:24:25;;;;;;;7.50;3.22;;;;;;;;;;5017318;28;20387;-76
2022/03/13 13:26:51;;;;;;;8.10;3.00;;;;;;;;;;5022521;28;20063;-75
2022/03/13 13:29:38;;;;;;;10.27;3.50;;;;;;;;;;5020104;28;20495;-75
2022/03/13 13:32:17;;;;;;;14.10;5.32;;;;;;;;;;5016804;28;20042;-73
2022/03/13 13:35:13;;;;;;;7.80;3.80;;;;;;;;;;5020949;28;20504;-72
2022/03/13 13:37:57;;;;;;;8.10;4.03;;;;;;;;;;5022233;28;20049;-74
2022/03/13 13:40:41;;;;;;;13.45;4.07;;;;;;;;;;5016902;28;20298;-72
2022/03/13 13:43:47;;;;;;;13.55;4.10;;;;;;;;;;5022677;28;20049;-72
2022/03/13 13:46:16;;;;;;;9.13;4.13;;;;;;;;;;5018951;28;20061;-73
2022/03/13 13:48:41;;;;;;;8.35;3.47;;;;;;;;;;5020439;28;20037;-74
2022/03/13 13:51:29;;;;;;;8.60;4.10;;;;;;;;;;5017811;28;20057;-72
2022/03/13 13:54:09;;;;;;;9.63;3.50;;;;;;;;;;5015195;28;20085;-75
2022/03/13 13:56:34;;;;;;;14.55;3.83;;;;;;;;;;5012997;28;20057;-73
2022/03/13 13:59:16;;;;;;;8.77;3.22;;;;;;;;;;5015372;28;20081;-73
2022/03/13 14:01:44;;;;;;;10.98;3.80;;;;;;;;;;5018366;28;20099;-73
2022/03/13 14:04:12;;;;;;;11.13;3.42;;;;;;;;;;5012229;28;20037;-73
2022/03/13 14:06:42;;;;;;;6.68;3.38;;;;;;;;;;5015935;28;20057;-74
2022/03/13 14:09:08;;;;;;;11.38;3.65;;;;;;;;;;5017784;28;20271;-73
2022/03/13 14:11:35;;;;;;;8.48;3.45;;;;;;;;;;5021038;28;20046;-73
2022/03/13 14:14:03;;;;;;;7.80;2.88;;;;;;;;;;5015840;28;20328;-73
2022/03/13 14:16:31;;;;;;;7.82;2.85;;;;;;;;;;5015750;28;20064;-72
2022/03/13 14:18:58;;;;;;;5.55;2.60;;;;;;;;;;5009356;28;20508;-73
2022/03/13 14:21:23;;;;;;;5.30;2.40;;;;;;;;;;5013064;28;20141;-76
2022/03/13 14:23:49;;;;;;;10.23;2.78;;;;;;;;;;5015317;28;20133;-72
2022/03/13 14:26:16;;;;;;;5.22;2.13;;;;;;;;;;5011849;28;20053;-75
2022/03/13 14:28:42;;;;;;;10.10;2.88;;;;;;;;;;5009939;28;20088;-73
2022/03/13 14:31:08;;;;;;;8.80;2.70;;;;;;;;;;5007824;28;20073;-73
2022/03/13 14:33:37;;;;;;;6.70;2.38;;;;;;;;;;5017058;28;20057;-75
2022/03/13 14:36:05;;;;;;;4.65;2.22;;;;;;;;;;5019362;28;20145;-74
2022/03/13 14:38:31;;;;;;;4.53;1.92;;;;;;;;;;5021146;28;20510;-74
2022/03/13 14:40:58;;;;;;;2.85;1.80;;;;;;;;;;5019668;28;20974;-74
2022/03/13 14:43:23;;;;;;;5.07;2.10;;;;;;;;;;5015022;28;20466;-74
2022/03/13 14:45:50;;;;;;;6.70;2.05;;;;;;;;;;5012470;28;20050;-75
2022/03/13 14:48:18;;;;;;;7.05;2.55;;;;;;;;;;5015122;28;20041;-73